Map

Track Data

SID SEASON NUMBER BASIN SUBBASIN NAME ISO_TIME NATURE LAT LON WMO_WIND WMO_PRES WMO_AGENCY TRACK_TYPE DIST2LAND LANDFALL IFLAG USA_AGENCY USA_ATCF_ID USA_LAT USA_LON USA_RECORD USA_STATUS USA_WIND USA_PRES USA_SSHS USA_R34_NE USA_R34_SE USA_R34_SW USA_R34_NW USA_R50_NE USA_R50_SE USA_R50_SW USA_R50_NW USA_R64_NE USA_R64_SE USA_R64_SW USA_R64_NW USA_POCI USA_ROCI USA_RMW USA_EYE TOKYO_LAT TOKYO_LON TOKYO_GRADE TOKYO_WIND TOKYO_PRES TOKYO_R50_DIR TOKYO_R50_LONG TOKYO_R50_SHORT TOKYO_R30_DIR TOKYO_R30_LONG TOKYO_R30_SHORT TOKYO_LAND CMA_LAT CMA_LON CMA_CAT CMA_WIND CMA_PRES HKO_LAT HKO_LON HKO_CAT HKO_WIND HKO_PRES NEWDELHI_LAT NEWDELHI_LON NEWDELHI_GRADE NEWDELHI_WIND NEWDELHI_PRES NEWDELHI_CI NEWDELHI_DP NEWDELHI_POCI REUNION_LAT REUNION_LON REUNION_TYPE REUNION_WIND REUNION_PRES REUNION_TNUM REUNION_CI REUNION_RMW REUNION_R34_NE REUNION_R34_SE REUNION_R34_SW REUNION_R34_NW REUNION_R50_NE REUNION_R50_SE REUNION_R50_SW REUNION_R50_NW REUNION_R64_NE REUNION_R64_SE REUNION_R64_SW REUNION_R64_NW BOM_LAT BOM_LON BOM_TYPE BOM_WIND BOM_PRES BOM_TNUM BOM_CI BOM_RMW BOM_R34_NE BOM_R34_SE BOM_R34_SW BOM_R34_NW BOM_R50_NE BOM_R50_SE BOM_R50_SW BOM_R50_NW BOM_R64_NE BOM_R64_SE BOM_R64_SW BOM_R64_NW BOM_ROCI BOM_POCI BOM_EYE BOM_POS_METHOD BOM_PRES_METHOD NADI_LAT NADI_LON NADI_CAT NADI_WIND NADI_PRES WELLINGTON_LAT WELLINGTON_LON WELLINGTON_WIND WELLINGTON_PRES DS824_LAT DS824_LON DS824_STAGE DS824_WIND DS824_PRES TD9636_LAT TD9636_LON TD9636_STAGE TD9636_WIND TD9636_PRES TD9635_LAT TD9635_LON TD9635_WIND TD9635_PRES TD9635_ROCI NEUMANN_LAT NEUMANN_LON NEUMANN_CLASS NEUMANN_WIND NEUMANN_PRES MLC_LAT MLC_LON MLC_CLASS MLC_WIND MLC_PRES USA_GUST BOM_GUST BOM_GUST_PER REUNION_GUST REUNION_GUST_PER USA_SEAHGT USA_SEARAD_NE USA_SEARAD_SE USA_SEARAD_SW USA_SEARAD_NW STORM_SPEED STORM_DIR
1954354S12155 1955 96 SP EA NOT_NAMED 1954-12-19 23:00:00 NR -12.3000 155.000 1001 bom main 506 506 ______O___O___ -1 -12.2000 155.000 1001 -12.4000 155.000 7 10 136
1954354S12155 1955 96 SP EA NOT_NAMED 1954-12-20 00:00:00 TS -12.4203 155.122 main 513 513 O_____P__OP___ jtwc_sh SH041955 -12.5000 155.100 -1 -12.3075 155.143 -12.3000 155.100 TC 30 1001 -12.5135 155.135 7 11 130
1954354S12155 1955 96 SP EA NOT_NAMED 1954-12-20 03:00:00 TS -12.7542 155.546 main 533 523 P_____P__PP___ SH041955 -12.8577 155.572 -1 -12.6285 155.570 -12.5893 155.472 TC -12.8516 155.538 7 11 129
1954354S12155 1955 96 SP EA NOT_NAMED 1954-12-20 06:00:00 TS -13.0789 155.956 main 541 541 O_____P__PP___ jtwc_sh SH041955 -13.2000 156.000 -1 -12.9448 155.991 -12.8782 155.845 TC -13.1818 155.940 7 10 130
1954354S12155 1955 96 SP EA NOT_NAMED 1954-12-20 09:00:00 TS -13.3897 156.334 main 555 547 P_____P__PP___ SH041955 -13.5148 156.358 -1 -13.2532 156.400 -13.1666 156.218 TC -13.4988 156.338 7 10 130
1954354S12155 1955 96 SP EA NOT_NAMED 1954-12-20 11:00:00 TS -13.5856 156.580 main 550 543 P_____P__PO___ SH041955 -13.7083 156.583 -1 -13.4530 156.664 -13.3586 156.468 TC -13.7000 156.600 7 9 129
1954354S12155 1955 96 SP EA NOT_NAMED 1954-12-20 12:00:00 TS -13.6805 156.703 main 552 545 O_____P__PP___ jtwc_sh SH041955 -13.8000 156.700 -1 -13.5508 156.793 -13.4545 156.593 TC -13.7970 156.730 7 9 126
1954354S12155 1955 96 SP EA NOT_NAMED 1954-12-20 15:00:00 TS -13.9529 157.091 main 554 547 P_____P__PP___ SH041955 -14.0575 157.108 -1 -13.8344 157.164 -13.7418 156.968 TC -14.0732 157.110 7 9 126
1954354S12155 1955 96 SP EA NOT_NAMED 1954-12-20 18:00:00 TS -14.2113 157.464 main 552 552 O_____P__PP___ jtwc_sh SH041955 -14.3000 157.500 -1 -14.1011 157.506 -14.0286 157.345 TC -14.3270 157.470 7 9 127
1954354S12155 1955 96 SP EA NOT_NAMED 1954-12-20 21:00:00 TS -14.4701 157.797 main 569 565 P_____P__PP___ SH041955 -14.5649 157.823 -1 -14.3479 157.815 -14.3146 157.722 TC -14.5583 157.801 7 8 129
1954354S12155 1955 96 SP EA NOT_NAMED 1954-12-20 23:00:00 TS -14.6322 157.999 1001 bom main 572 572 P_____O__PO___ SH041955 -14.7281 158.011 -1 -14.5000 158.000 1001 -14.5050 157.974 TC -14.7000 158.000 7 8 129
1954354S12155 1955 96 SP EA NOT_NAMED 1954-12-21 00:00:00 TS -14.7076 158.096 main 578 578 O_____P__OP___ jtwc_sh SH041955 -14.8000 158.100 -1 -14.5720 158.085 -14.6000 158.100 TC 30 1001 -14.7658 158.093 7 6 127
1954354S12155 1955 96 SP EA NOT_NAMED 1954-12-21 03:00:00 TS -14.8847 158.351 main 587 584 P_____P__PP___ SH041955 -14.9575 158.365 -1 -14.7740 158.319 -14.7885 158.361 TC -14.9459 158.345 7 6 126
1954354S12155 1955 96 SP EA NOT_NAMED 1954-12-21 06:00:00 TS -15.0497 158.584 main 584 584 O_____P__PP___ jtwc_sh SH041955 -15.1000 158.600 -1 -14.9596 158.529 -14.9768 158.622 TC -15.1120 158.567 7 6 129
1954354S12155 1955 96 SP EA NOT_NAMED 1954-12-21 09:00:00 TS -15.2329 158.800 main 590 590 P_____P__PP___ SH041955 -15.2925 158.808 -1 -15.1352 158.731 -15.1648 158.884 TC -15.2796 158.769 7 6 132
1954354S12155 1955 96 SP EA NOT_NAMED 1954-12-21 11:00:00 TS -15.3602 158.940 main 603 597 P_____P__PO___ SH041955 -15.4307 158.936 -1 -15.2496 158.868 -15.2899 159.059 TC -15.4000 158.900 7 6 132
1954354S12155 1955 96 SP EA NOT_NAMED 1954-12-21 12:00:00 TS -15.4164 159.011 main 597 596 O_____P__PP___ jtwc_sh SH041955 -15.5000 159.000 -1 -15.3068 158.939 -15.3525 159.146 TC -15.4643 158.966 7 6 130
1954354S12155 1955 96 SP EA NOT_NAMED 1954-12-21 15:00:00 TS -15.5990 159.235 main 606 601 P_____P__PP___ SH041955 -15.7025 159.197 -1 -15.4805 159.169 -15.5399 159.409 TC -15.6731 159.164 7 6 128
1954354S12155 1955 96 SP EA NOT_NAMED 1954-12-21 18:00:00 TS -15.7737 159.486 main 612 608 O_____P__PP___ jtwc_sh SH041955 -15.9000 159.400 -1 -15.6625 159.435 -15.7269 159.672 TC -15.9000 159.364 7 6 123
1954354S12155 1955 96 SP EA NOT_NAMED 1954-12-21 21:00:00 TS -15.9391 159.772 main 610 610 ______P__PP___ SH041955 -1 -15.8585 159.752 -15.9136 159.936 TC -16.1383 159.565 7 7 120
1954354S12155 1955 96 SP EA NOT_NAMED 1954-12-21 23:00:00 TS -16.0537 159.989 1001 bom main 624 621 ______O__PO___ SH041955 -1 -16.0000 160.000 1001 -16.0379 160.112 TC -16.3000 159.700 7 8 111
1954354S12155 1955 96 SP MM NOT_NAMED 1954-12-22 00:00:00 TS -16.0796 160.149 main 621 571 ______P__O____ -1 -16.0745 160.136 1000 -16.1000 160.200 TC 30 1001 7 9 114
1954354S12155 1955 96 SP MM NOT_NAMED 1954-12-22 03:00:00 NR -16.3115 160.589 main 571 521 ______P_______ -1 -16.3115 160.589 1000 TC 7 10 118
1954354S12155 1955 96 SP MM NOT_NAMED 1954-12-22 06:00:00 NR -16.5636 161.094 main 512 462 ______P_______ -1 -16.5636 161.094 1000 TC 7 11 117
1954354S12155 1955 96 SP MM NOT_NAMED 1954-12-22 09:00:00 NR -16.8244 161.632 main 462 420 ______P_______ -1 -16.8244 161.632 1000 TC 7 12 117
1954354S12155 1955 96 SP MM NOT_NAMED 1954-12-22 11:00:00 NR -17.0000 162.000 1000 bom main 420 ______O_______ -1 -17.0000 162.000 1000 4 TC 12 116

Digital Typhoon Data and Search

About IBTrACS Database

This database is a web-friendly format of International Best Track Archive for Climate Stewardship (IBTrACS), a global best track data archive curated by NOAA dating back to 1842.

Updated: 2021-11-26